createdAt,value
2024-05-09T00:00:36.244Z,67985.50
2024-05-09T00:01:36.265Z,67985.31
2024-05-09T00:02:33.028Z,68003.50
2024-05-09T00:03:29.889Z,68003.06
2024-05-09T00:04:26.641Z,67993.44
2024-05-09T00:05:23.574Z,67993.00
2024-05-09T00:06:20.326Z,67999.72
2024-05-09T00:07:17.100Z,67992.59
2024-05-09T00:08:14.051Z,67994.13
2024-05-09T00:09:10.914Z,67995.13
2024-05-09T00:10:11.800Z,67994.00
2024-05-09T00:11:16.474Z,67997.47
2024-05-09T00:12:13.768Z,68000.13
2024-05-09T00:13:11.246Z,67981.16
2024-05-09T00:14:08.311Z,68002.38
2024-05-09T00:15:05.530Z,67987.31
2024-05-09T00:16:02.314Z,67980.84
2024-05-09T00:16:59.041Z,67980.03
2024-05-09T00:17:55.937Z,67966.75
2024-05-09T00:18:52.773Z,67970.53
2024-05-09T00:19:49.630Z,67967.19
2024-05-09T00:20:46.444Z,67967.75
2024-05-09T00:21:43.710Z,67987.31
2024-05-09T00:22:40.413Z,67995.91
2024-05-09T00:23:37.142Z,67978.50
2024-05-09T00:24:33.860Z,67991.22
2024-05-09T00:25:30.529Z,68005.75
2024-05-09T00:26:27.367Z,68019.16
2024-05-09T00:27:24.293Z,68001.41
2024-05-09T00:28:21.160Z,68013.81
2024-05-09T00:29:17.950Z,68000.84
2024-05-09T00:30:23.995Z,67997.47
2024-05-09T00:31:27.402Z,67983.94
2024-05-09T00:32:24.264Z,67978.91
2024-05-09T00:33:21.497Z,67991.31
2024-05-09T00:34:18.556Z,68010.22
2024-05-09T00:35:15.403Z,68027.00
2024-05-09T00:36:12.140Z,68014.13
2024-05-09T00:37:08.876Z,67983.38
2024-05-09T00:38:05.840Z,67987.59
2024-05-09T00:39:02.647Z,67975.03
2024-05-09T00:39:59.355Z,67969.13
2024-05-09T00:40:56.115Z,67985.63
2024-05-09T00:41:52.849Z,67969.41
2024-05-09T00:42:49.565Z,67972.34
2024-05-09T00:43:46.321Z,67983.94
2024-05-09T00:44:43.016Z,67990.09
2024-05-09T00:45:39.693Z,67983.53
2024-05-09T00:46:36.455Z,67980.59
2024-05-09T00:47:34.285Z,67988.53
2024-05-09T00:48:31.909Z,67980.72
2024-05-09T00:49:29.208Z,67976.81
2024-05-09T00:50:34.050Z,68000.84
2024-05-09T00:51:33.612Z,67998.03
2024-05-09T00:52:30.760Z,67960.59
2024-05-09T00:53:28.157Z,67961.03
2024-05-09T00:54:26.255Z,67978.34
2024-05-09T00:55:24.032Z,67987.97
2024-05-09T00:56:22.028Z,67996.22
2024-05-09T00:57:18.849Z,67964.63
2024-05-09T00:58:18.317Z,67962.28
2024-05-09T00:59:15.903Z,67985.06
2024-05-09T01:00:22.549Z,67973.44
2024-05-09T01:01:28.375Z,67960.59
2024-05-09T01:02:25.263Z,67954.59
2024-05-09T01:03:22.600Z,67944.00
2024-05-09T01:04:19.606Z,67955.03
2024-05-09T01:05:16.495Z,67956.56
2024-05-09T01:06:13.265Z,67958.38
2024-05-09T01:07:11.276Z,67962.16
2024-05-09T01:08:09.258Z,67975.03
2024-05-09T01:09:06.368Z,67956.28
2024-05-09T01:10:04.219Z,67954.34
2024-05-09T01:11:02.375Z,67960.59
2024-05-09T01:11:59.335Z,67955.72
2024-05-09T01:12:56.137Z,67931.00
2024-05-09T01:13:52.950Z,67956.56
2024-05-09T01:14:49.666Z,67959.94
2024-05-09T01:15:48.178Z,67955.56
2024-05-09T01:16:45.143Z,67966.06
2024-05-09T01:17:42.384Z,67969.97
2024-05-09T01:18:39.645Z,67956.03
2024-05-09T01:19:36.774Z,67969.97
2024-05-09T01:20:41.037Z,67963.41
2024-05-09T01:21:41.665Z,67954.34
2024-05-09T01:22:39.430Z,67961.72
2024-05-09T01:23:36.547Z,67972.22
2024-05-09T01:24:33.672Z,67962.72
2024-05-09T01:25:30.437Z,67963.53
2024-05-09T01:26:27.175Z,67965.66
2024-05-09T01:27:24.039Z,67955.03
2024-05-09T01:28:20.743Z,67966.75
2024-05-09T01:29:17.647Z,67949.56
2024-05-09T01:30:17.460Z,67961.59
2024-05-09T01:31:18.093Z,67963.41
2024-05-09T01:32:14.939Z,67984.06
2024-05-09T01:33:12.775Z,67951.69
2024-05-09T01:34:10.162Z,67942.31
2024-05-09T01:35:07.180Z,67937.59
2024-05-09T01:36:04.137Z,67935.34
2024-05-09T01:37:00.837Z,67912.59
2024-05-09T01:37:57.605Z,67892.94
2024-05-09T01:38:54.431Z,67888.56
2024-05-09T01:39:51.287Z,67900.19
2024-05-09T01:40:48.710Z,67904.91
2024-05-09T01:41:45.424Z,67929.22
2024-05-09T01:42:42.272Z,67913.56
2024-05-09T01:43:39.001Z,67874.59
2024-05-09T01:44:35.731Z,67887.34
2024-05-09T01:45:32.441Z,67895.16
2024-05-09T01:46:29.144Z,67883.97
2024-05-09T01:47:26.084Z,67880.63
2024-05-09T01:48:23.082Z,67896.97
2024-05-09T01:49:20.052Z,67915.94
2024-05-09T01:50:22.470Z,67914.56
2024-05-09T01:51:25.559Z,67889.31
2024-05-09T01:52:22.274Z,67899.19
2024-05-09T01:53:19.074Z,67893.47
2024-05-09T01:54:15.841Z,67909.66
2024-05-09T01:55:12.557Z,67921.53
2024-05-09T01:56:10.266Z,67924.19
2024-05-09T01:57:07.007Z,67899.63
2024-05-09T01:58:03.867Z,67916.50
2024-05-09T01:59:01.980Z,67910.22
2024-05-09T01:59:58.729Z,67895.84
2024-05-09T02:00:55.571Z,67891.38
2024-05-09T02:01:56.866Z,67886.78
2024-05-09T02:02:54.714Z,67897.94
2024-05-09T02:03:51.780Z,67895.84
2024-05-09T02:04:50.063Z,67904.09
2024-05-09T02:05:48.308Z,67917.03
2024-05-09T02:06:45.226Z,67925.31
2024-05-09T02:07:41.922Z,67925.31
2024-05-09T02:08:38.783Z,67909.25
2024-05-09T02:09:35.568Z,67916.06
2024-05-09T02:10:33.408Z,67915.94
2024-05-09T02:11:30.512Z,67915.81
2024-05-09T02:12:27.252Z,67919.72
2024-05-09T02:13:23.974Z,67917.19
2024-05-09T02:14:20.908Z,67921.09
2024-05-09T02:15:17.665Z,67921.94
2024-05-09T02:16:14.618Z,67929.22
2024-05-09T02:17:11.365Z,67931.56
2024-05-09T02:18:09.164Z,67915.94
2024-05-09T02:19:06.430Z,67920.41
2024-05-09T02:20:03.690Z,67920.41
2024-05-09T02:21:02.704Z,67915.50
2024-05-09T02:21:59.445Z,67900.19
2024-05-09T02:22:57.605Z,67905.22
2024-05-09T02:23:54.418Z,67890.13
2024-05-09T02:24:51.211Z,67857.31
2024-05-09T02:25:47.946Z,67864.97
2024-05-09T02:26:44.669Z,67875.03
2024-05-09T02:27:42.359Z,67881.19
2024-05-09T02:28:39.030Z,67875.16
2024-05-09T02:29:35.768Z,67858.53
2024-05-09T02:30:39.444Z,67842.66
2024-05-09T02:31:38.265Z,67866.81
2024-05-09T02:32:35.104Z,67847.81
2024-05-09T02:33:32.167Z,67853.53
2024-05-09T02:34:29.053Z,67841.13
2024-05-09T02:35:26.863Z,67840.44
2024-05-09T02:36:23.638Z,67856.06
2024-05-09T02:37:20.342Z,67839.88
2024-05-09T02:38:17.326Z,67873.91
2024-05-09T02:39:14.052Z,67871.69
2024-05-09T02:40:14.724Z,67893.03
2024-05-09T02:41:14.846Z,67870.00
2024-05-09T02:42:11.587Z,67855.50
2024-05-09T02:43:10.287Z,67857.72
2024-05-09T02:44:08.133Z,67864.00
2024-05-09T02:45:05.365Z,67879.50
2024-05-09T02:46:02.029Z,67880.63
2024-05-09T02:46:58.737Z,67875.03
2024-05-09T02:47:55.707Z,67871.94
2024-05-09T02:48:52.646Z,67876.13
2024-05-09T02:49:49.401Z,67873.38
2024-05-09T02:50:46.272Z,67882.88
2024-05-09T02:51:43.029Z,67880.19
2024-05-09T02:52:39.739Z,67888.31
2024-05-09T02:53:36.456Z,67906.88
2024-05-09T02:54:33.198Z,67915.94
2024-05-09T02:55:29.866Z,67895.97
2024-05-09T02:56:26.662Z,67905.88
2024-05-09T02:57:23.424Z,67904.09
2024-05-09T02:58:20.149Z,67912.34
2024-05-09T02:59:16.884Z,67890.25
2024-05-09T03:00:19.058Z,67866.09
2024-05-09T03:01:22.753Z,67895.69
2024-05-09T03:02:19.731Z,67905.88
2024-05-09T03:03:16.639Z,67878.81
2024-05-09T03:04:13.569Z,67882.31
2024-05-09T03:05:10.962Z,67888.44
2024-05-09T03:06:07.715Z,67887.34
2024-05-09T03:07:04.681Z,67886.78
2024-05-09T03:08:01.537Z,67885.78
2024-05-09T03:08:58.403Z,67887.03
2024-05-09T03:09:55.089Z,67890.69
2024-05-09T03:10:51.826Z,67898.50
2024-05-09T03:11:48.704Z,67902.41
2024-05-09T03:12:45.525Z,67873.47
2024-05-09T03:13:42.215Z,67883.97
2024-05-09T03:14:38.895Z,67883.97
2024-05-09T03:15:35.799Z,67888.03
2024-05-09T03:16:37.976Z,67896.81
2024-05-09T03:17:34.946Z,67900.19
2024-05-09T03:18:31.923Z,67888.03
2024-05-09T03:19:28.718Z,67882.44
2024-05-09T03:20:32.517Z,67887.34
2024-05-09T03:21:31.566Z,67868.47
2024-05-09T03:22:28.693Z,67860.53
2024-05-09T03:23:25.418Z,67852.69
2024-05-09T03:24:22.137Z,67847.81
2024-05-09T03:25:18.810Z,67852.16
2024-05-09T03:26:17.472Z,67838.88
2024-05-09T03:27:14.208Z,67838.63
2024-05-09T03:28:11.431Z,67833.16
2024-05-09T03:29:08.325Z,67843.91
2024-05-09T03:30:07.441Z,67869.47
2024-05-09T03:31:04.408Z,67876.69
2024-05-09T03:32:01.246Z,67871.13
2024-05-09T03:32:58.124Z,67857.44
2024-05-09T03:33:54.999Z,67876.69
2024-05-09T03:34:51.763Z,67882.88
2024-05-09T03:35:49.311Z,67886.22
2024-05-09T03:36:46.541Z,67869.03
2024-05-09T03:37:43.229Z,67864.41
2024-05-09T03:38:40.100Z,67849.47
2024-05-09T03:39:36.796Z,67844.47
2024-05-09T03:40:33.473Z,67837.66
2024-05-09T03:41:30.204Z,67846.00
2024-05-09T03:42:26.951Z,67849.94
2024-05-09T03:43:24.091Z,67867.78
2024-05-09T03:44:20.868Z,67868.03
2024-05-09T03:45:17.614Z,67887.91
2024-05-09T03:46:14.365Z,67885.91
2024-05-09T03:47:11.173Z,67891.38
2024-05-09T03:48:08.467Z,67892.94
2024-05-09T03:49:05.755Z,67902.84
2024-05-09T03:50:03.316Z,67889.25
2024-05-09T03:51:01.279Z,67904.50
2024-05-09T03:51:58.004Z,67890.25
2024-05-09T03:52:55.142Z,67876.84
2024-05-09T03:53:51.909Z,67843.91
2024-05-09T03:54:48.576Z,67817.81
2024-05-09T03:55:45.452Z,67819.91
2024-05-09T03:56:42.299Z,67827.72
2024-05-09T03:57:39.074Z,67842.91
2024-05-09T03:58:35.797Z,67865.22
2024-05-09T03:59:32.604Z,67863.88
2024-05-09T04:00:36.905Z,67849.94
2024-05-09T04:01:35.770Z,67841.53
2024-05-09T04:02:32.715Z,67831.06
2024-05-09T04:03:29.745Z,67829.84
2024-05-09T04:04:26.549Z,67825.94
2024-05-09T04:05:23.605Z,67825.94
2024-05-09T04:06:23.014Z,67824.38
2024-05-09T04:07:19.715Z,67837.22
2024-05-09T04:08:18.990Z,67849.47
2024-05-09T04:09:15.738Z,67842.66
2024-05-09T04:10:21.015Z,67839.44
2024-05-09T04:11:24.645Z,67827.72
2024-05-09T04:12:21.496Z,67824.13
2024-05-09T04:13:18.231Z,67814.75
2024-05-09T04:14:15.036Z,67807.63
2024-05-09T04:15:13.627Z,67816.00
2024-05-09T04:16:11.386Z,67806.97
2024-05-09T04:17:08.170Z,67816.56
2024-05-09T04:18:05.387Z,67831.50
2024-05-09T04:19:02.488Z,67835.53
2024-05-09T04:19:59.299Z,67852.28
2024-05-09T04:20:56.868Z,67870.00
2024-05-09T04:21:53.621Z,67860.09
2024-05-09T04:22:50.333Z,67880.63
2024-05-09T04:23:47.114Z,67900.88
2024-05-09T04:24:43.852Z,67891.81
2024-05-09T04:25:42.066Z,67888.44
2024-05-09T04:26:38.812Z,67876.84
2024-05-09T04:27:35.550Z,67863.88
2024-05-09T04:28:32.228Z,67901.59
2024-05-09T04:29:29.055Z,67900.72
2024-05-09T04:30:34.671Z,67898.50
2024-05-09T04:31:38.708Z,67871.94
2024-05-09T04:32:35.541Z,67862.88
2024-05-09T04:33:32.911Z,67859.41
2024-05-09T04:34:29.814Z,67883.97
2024-05-09T04:35:26.732Z,67894.59
2024-05-09T04:36:23.517Z,67870.00
2024-05-09T04:37:20.221Z,67880.34
2024-05-09T04:38:16.955Z,67900.31
2024-05-09T04:39:13.674Z,67895.84
2024-05-09T04:40:20.516Z,67912.47
2024-05-09T04:41:21.048Z,67912.16
2024-05-09T04:42:17.800Z,67922.50
2024-05-09T04:43:17.362Z,67937.72
2024-05-09T04:44:14.340Z,67925.56
2024-05-09T04:45:11.048Z,67934.22
2024-05-09T04:46:07.728Z,67934.38
2024-05-09T04:47:04.702Z,67944.97
2024-05-09T04:48:02.166Z,67949.00
2024-05-09T04:48:59.268Z,67950.56
2024-05-09T04:49:56.070Z,67937.72
2024-05-09T04:50:52.933Z,67942.63
2024-05-09T04:51:49.681Z,67946.78
2024-05-09T04:52:46.483Z,67924.28
2024-05-09T04:53:43.233Z,67944.41
2024-05-09T04:54:39.980Z,67952.09
2024-05-09T04:55:36.895Z,67947.22
2024-05-09T04:56:33.965Z,67967.75
2024-05-09T04:57:30.765Z,67961.59
2024-05-09T04:58:27.466Z,67965.50
2024-05-09T04:59:24.380Z,67963.53
2024-05-09T05:00:28.936Z,67976.25
2024-05-09T05:01:32.219Z,67966.06
2024-05-09T05:02:29.003Z,67960.19
2024-05-09T05:03:25.922Z,67967.19
2024-05-09T05:04:22.806Z,67980.03
2024-05-09T05:05:19.756Z,67963.41
2024-05-09T05:06:16.539Z,67972.88
2024-05-09T05:07:13.276Z,67944.41
2024-05-09T05:08:13.790Z,67919.28
2024-05-09T05:09:10.912Z,67937.59
2024-05-09T05:10:11.839Z,67943.84
2024-05-09T05:11:14.537Z,67960.06
2024-05-09T05:12:31.317Z,67961.03
2024-05-09T05:13:32.167Z,67972.88
2024-05-09T05:14:29.111Z,67974.56
2024-05-09T05:15:25.930Z,67978.34
2024-05-09T05:16:22.635Z,67975.56
2024-05-09T05:17:19.520Z,67969.53
2024-05-09T05:18:16.820Z,67963.84
2024-05-09T05:19:16.924Z,67964.94
2024-05-09T05:20:17.962Z,67982.25
2024-05-09T05:21:20.988Z,67995.69
2024-05-09T05:22:17.871Z,67991.22
2024-05-09T05:23:16.499Z,67984.75
2024-05-09T05:24:13.541Z,67996.38
2024-05-09T05:25:10.501Z,68002.38
2024-05-09T05:26:07.218Z,68001.94
2024-05-09T05:27:04.150Z,67986.44
2024-05-09T05:28:00.827Z,67999.59
2024-05-09T05:28:57.605Z,67994.69
2024-05-09T05:29:54.299Z,67993.13
2024-05-09T05:30:51.049Z,67990.91
2024-05-09T05:31:47.891Z,68000.13
2024-05-09T05:32:44.856Z,67998.59
2024-05-09T05:33:41.794Z,67977.25
2024-05-09T05:34:38.568Z,67985.06
2024-05-09T05:35:36.026Z,67988.13
2024-05-09T05:36:32.673Z,67975.81
2024-05-09T05:37:29.406Z,67980.03
2024-05-09T05:38:28.218Z,67984.50
2024-05-09T05:39:25.340Z,67974.72
2024-05-09T05:40:28.619Z,67982.41
2024-05-09T05:41:32.562Z,67994.00
2024-05-09T05:42:29.344Z,67994.81
2024-05-09T05:43:26.764Z,67990.22
2024-05-09T05:44:23.531Z,68014.66
2024-05-09T05:45:20.280Z,68012.00
2024-05-09T05:46:16.975Z,68013.00
2024-05-09T05:47:13.822Z,68005.28
2024-05-09T05:48:10.959Z,68026.44
2024-05-09T05:49:07.986Z,68020.41
2024-05-09T05:50:09.359Z,68023.19
2024-05-09T05:51:11.226Z,68040.41
2024-05-09T05:52:07.973Z,68043.22
2024-05-09T05:53:08.503Z,68057.41
2024-05-09T05:54:05.775Z,68079.53
2024-05-09T05:55:04.768Z,68069.03
2024-05-09T05:56:01.910Z,68060.78
2024-05-09T05:56:59.315Z,68057.84
2024-05-09T05:57:56.044Z,68065.13
2024-05-09T05:58:52.847Z,68063.44
2024-05-09T05:59:49.610Z,68048.22
2024-05-09T06:00:46.397Z,68063.31
2024-05-09T06:01:43.163Z,68080.22
2024-05-09T06:02:39.929Z,68071.28
2024-05-09T06:03:36.849Z,68072.50
2024-05-09T06:04:33.783Z,68081.88
2024-05-09T06:05:30.540Z,68098.09
2024-05-09T06:06:27.291Z,68098.66
2024-05-09T06:07:24.004Z,68090.72
2024-05-09T06:08:21.031Z,68094.63
2024-05-09T06:09:17.791Z,68120.34
2024-05-09T06:10:21.269Z,68086.81
2024-05-09T06:11:22.463Z,68132.78
2024-05-09T06:12:19.404Z,68121.03
2024-05-09T06:13:16.224Z,68120.91
2024-05-09T06:14:13.146Z,68112.78
2024-05-09T06:15:09.846Z,68124.94
2024-05-09T06:16:06.744Z,68126.63
2024-05-09T06:17:06.694Z,68139.50
2024-05-09T06:18:06.486Z,68134.00
2024-05-09T06:19:03.760Z,68132.31
2024-05-09T06:20:00.635Z,68137.91
2024-05-09T06:20:57.430Z,68134.56
2024-05-09T06:21:54.183Z,68143.81
2024-05-09T06:22:50.940Z,68145.66
2024-05-09T06:23:48.762Z,68151.38
2024-05-09T06:24:45.649Z,68155.28
2024-05-09T06:25:42.754Z,68139.50
2024-05-09T06:26:43.101Z,68144.38
2024-05-09T06:27:40.272Z,68130.66
2024-05-09T06:28:37.013Z,68112.22
2024-05-09T06:29:38.432Z,68080.91
2024-05-09T06:30:42.140Z,68072.50
2024-05-09T06:31:41.648Z,68124.38
2024-05-09T06:32:38.587Z,68149.16
2024-05-09T06:33:35.635Z,68132.31
2024-05-09T06:34:32.851Z,68126.63
2024-05-09T06:35:29.703Z,68130.97
2024-05-09T06:36:26.427Z,68139.59
2024-05-09T06:37:23.144Z,68142.16
2024-05-09T06:38:19.856Z,68127.69
2024-05-09T06:39:16.590Z,68148.03
2024-05-09T06:40:17.341Z,68131.22
2024-05-09T06:41:14.431Z,68149.16
2024-05-09T06:42:11.128Z,68160.75
2024-05-09T06:43:16.415Z,68175.31
2024-05-09T06:44:15.235Z,68153.63
2024-05-09T06:45:11.970Z,68165.72
2024-05-09T06:46:08.698Z,68170.38
2024-05-09T06:47:05.556Z,68193.22
2024-05-09T06:48:05.026Z,68203.84
2024-05-09T06:49:08.086Z,68207.31
2024-05-09T06:50:08.345Z,68211.81
2024-05-09T06:51:09.951Z,68204.28
2024-05-09T06:52:06.747Z,68186.50
2024-05-09T06:53:03.632Z,68191.66
2024-05-09T06:54:00.364Z,68186.63
2024-05-09T06:54:57.042Z,68228.59
2024-05-09T06:55:53.882Z,68221.19
2024-05-09T06:56:50.683Z,68231.25
2024-05-09T06:57:47.385Z,68203.41
2024-05-09T06:58:44.110Z,68200.06
2024-05-09T06:59:40.835Z,68217.41
2024-05-09T07:00:40.349Z,68202.84
2024-05-09T07:01:38.542Z,68209.56
2024-05-09T07:02:35.340Z,68200.91
2024-05-09T07:03:32.831Z,68189.84
2024-05-09T07:04:29.716Z,68117.66
2024-05-09T07:05:26.736Z,68118.66
2024-05-09T07:06:23.556Z,68102.59
2024-05-09T07:07:20.319Z,68072.50
2024-05-09T07:08:17.774Z,68048.34
2024-05-09T07:09:14.625Z,68091.53
2024-05-09T07:10:21.560Z,68132.22
2024-05-09T07:11:22.433Z,68182.59
2024-05-09T07:12:19.359Z,68131.75
2024-05-09T07:13:16.343Z,68088.72
2024-05-09T07:14:13.239Z,68119.34
2024-05-09T07:15:09.972Z,68120.91
2024-05-09T07:16:06.924Z,68096.44
2024-05-09T07:17:04.054Z,68115.56
2024-05-09T07:18:01.065Z,68136.25
2024-05-09T07:18:58.242Z,68137.91
2024-05-09T07:19:55.099Z,68151.38
2024-05-09T07:20:51.975Z,68134.56
2024-05-09T07:21:49.002Z,68085.94
2024-05-09T07:22:45.699Z,68079.78
2024-05-09T07:23:45.184Z,68089.59
2024-05-09T07:24:42.853Z,68121.72
2024-05-09T07:25:40.531Z,68081.19
2024-05-09T07:26:37.300Z,68086.34
2024-05-09T07:27:34.541Z,68111.97
2024-05-09T07:28:31.317Z,68123.94
2024-05-09T07:29:28.200Z,68131.22
2024-05-09T07:30:32.683Z,68110.84
2024-05-09T07:31:31.491Z,68081.88
2024-05-09T07:32:28.386Z,68054.50
2024-05-09T07:33:25.396Z,68076.97
2024-05-09T07:34:22.485Z,68152.94
2024-05-09T07:35:19.447Z,68099.91
2024-05-09T07:36:16.244Z,68062.47
2024-05-09T07:37:13.837Z,68093.06
2024-05-09T07:38:10.655Z,68143.97
2024-05-09T07:39:07.429Z,68142.28
2024-05-09T07:40:07.473Z,68175.41
2024-05-09T07:41:04.805Z,68199.38
2024-05-09T07:42:01.508Z,68201.59
2024-05-09T07:42:58.229Z,68184.25
2024-05-09T07:43:54.954Z,68184.25
2024-05-09T07:44:51.733Z,68177.09
2024-05-09T07:45:53.279Z,68193.63
2024-05-09T07:48:13.585Z,68206.22
2024-05-09T07:49:44.645Z,68199.50
2024-05-09T07:53:32.304Z,68211.81
2024-05-09T07:53:47.896Z,68210.00
2024-05-09T07:54:48.117Z,68206.22
2024-05-09T07:55:45.078Z,68194.44
2024-05-09T07:56:41.995Z,68218.94
2024-05-09T07:57:38.791Z,68225.78
2024-05-09T07:58:35.646Z,68223.00
2024-05-09T07:59:36.086Z,68202.28
2024-05-09T08:00:34.592Z,68207.31
2024-05-09T08:01:31.629Z,68210.69
2024-05-09T08:02:28.784Z,68203.97
2024-05-09T08:03:25.666Z,68198.38
2024-05-09T08:04:25.100Z,68205.66
2024-05-09T08:05:23.264Z,68182.69
2024-05-09T08:06:20.097Z,68114.44
2024-05-09T08:07:17.875Z,68167.03
2024-05-09T08:08:14.607Z,68162.00
2024-05-09T08:09:16.730Z,68186.06
2024-05-09T08:10:21.923Z,68164.78
2024-05-09T08:11:21.598Z,68179.91
2024-05-09T08:12:18.367Z,68141.31
2024-05-09T08:13:15.146Z,68132.31
2024-05-09T08:14:11.886Z,68126.06
2024-05-09T08:15:08.593Z,68178.22
2024-05-09T08:16:05.779Z,68153.63
2024-05-09T08:17:02.601Z,68152.38
2024-05-09T08:18:00.186Z,68137.91
2024-05-09T08:18:57.143Z,68093.06
2024-05-09T08:19:55.489Z,68118.66
2024-05-09T08:20:52.356Z,68154.59
2024-05-09T08:21:49.105Z,68121.03
2024-05-09T08:22:46.350Z,68104.94
2024-05-09T08:23:43.027Z,68106.63
2024-05-09T08:24:39.856Z,68100.34
2024-05-09T08:25:36.625Z,68089.84
2024-05-09T08:26:33.393Z,68006.41
2024-05-09T08:27:30.972Z,68027.22
2024-05-09T08:28:27.990Z,68013.69
2024-05-09T08:29:24.813Z,68050.44
2024-05-09T08:30:25.338Z,68001.25
2024-05-09T08:31:29.474Z,68017.59
2024-05-09T08:32:27.517Z,68041.63
2024-05-09T08:33:24.454Z,68005.84
2024-05-09T08:34:21.332Z,67978.59
2024-05-09T08:35:18.073Z,67990.09
2024-05-09T08:36:15.136Z,68004.75
2024-05-09T08:37:19.420Z,67983.38
2024-05-09T08:38:18.737Z,68005.28
2024-05-09T08:39:15.441Z,67984.06
2024-05-09T08:40:23.482Z,67952.91
2024-05-09T08:41:24.995Z,68011.56
2024-05-09T08:42:23.413Z,68046.78
2024-05-09T08:43:20.745Z,68064.13
2024-05-09T08:44:21.169Z,68077.53
2024-05-09T08:45:18.562Z,68074.19
2024-05-09T08:46:15.748Z,68059.41
2024-05-09T08:47:12.597Z,68034.94
2024-05-09T08:48:12.050Z,68063.88
2024-05-09T08:49:09.297Z,68043.88
2024-05-09T08:50:13.560Z,68083.56
2024-05-09T08:51:14.455Z,68078.00
2024-05-09T08:52:11.213Z,68083.00
2024-05-09T08:53:08.771Z,68079.59
2024-05-09T08:54:05.771Z,68069.03
2024-05-09T08:55:03.362Z,68085.38
2024-05-09T08:56:02.489Z,68081.19
2024-05-09T08:57:00.593Z,68093.19
2024-05-09T08:57:58.333Z,68045.00
2024-05-09T08:58:59.076Z,68062.31
2024-05-09T08:59:59.707Z,68100.78
2024-05-09T09:00:57.622Z,68095.97
2024-05-09T09:01:55.481Z,68087.63
2024-05-09T09:02:52.361Z,68089.28
2024-05-09T09:03:50.390Z,68111.41
2024-05-09T09:05:11.408Z,68095.44
2024-05-09T09:06:14.640Z,68119.91
2024-05-09T09:07:11.950Z,68106.63
2024-05-09T09:08:08.978Z,68127.84
2024-05-09T09:09:05.999Z,67973.34
2024-05-09T09:10:04.077Z,67955.03
2024-05-09T09:11:02.986Z,67932.81
2024-05-09T09:12:00.797Z,67968.00
2024-05-09T09:13:03.848Z,68013.69
2024-05-09T09:14:00.642Z,67994.25
2024-05-09T09:14:57.334Z,68043.31
2024-05-09T09:15:57.917Z,68052.28
2024-05-09T09:16:56.570Z,68007.66
2024-05-09T09:17:58.409Z,68047.91
2024-05-09T09:18:57.874Z,68082.00
2024-05-09T09:19:54.782Z,68083.00
2024-05-09T09:20:51.672Z,68084.81
2024-05-09T09:21:48.507Z,68127.19
2024-05-09T09:22:45.373Z,68134.00
2024-05-09T09:23:42.055Z,68148.03
2024-05-09T09:24:38.855Z,68149.16
2024-05-09T09:25:35.724Z,68181.03
2024-05-09T09:26:32.658Z,68199.50
2024-05-09T09:27:29.556Z,68187.19
2024-05-09T09:28:26.275Z,68181.47
2024-05-09T09:29:22.977Z,68162.00
2024-05-09T09:30:31.681Z,68182.13
2024-05-09T09:31:33.620Z,68180.34
2024-05-09T09:32:30.499Z,68175.78
2024-05-09T09:33:31.506Z,68211.81
2024-05-09T09:34:28.980Z,68191.41
2024-05-09T09:35:25.849Z,68174.88
2024-05-09T09:36:22.638Z,68156.41
2024-05-09T09:37:23.428Z,68173.63
2024-05-09T09:38:23.101Z,68187.06
2024-05-09T09:39:22.944Z,68175.97
2024-05-09T09:40:30.982Z,68182.03
2024-05-09T09:41:30.668Z,68172.50
2024-05-09T09:42:31.694Z,68194.88
2024-05-09T09:43:28.683Z,68188.19
2024-05-09T09:44:29.604Z,68179.34
2024-05-09T09:45:28.589Z,68169.72
2024-05-09T09:46:27.642Z,68131.22
2024-05-09T09:47:27.259Z,68150.13
2024-05-09T09:48:24.964Z,68173.75
2024-05-09T09:49:24.160Z,68206.75
2024-05-09T09:50:27.891Z,68225.22
2024-05-09T09:51:31.693Z,68211.81
2024-05-09T09:52:28.807Z,68230.25
2024-05-09T09:53:28.137Z,68221.88
2024-05-09T09:54:25.042Z,68230.25
2024-05-09T09:55:25.882Z,68184.25
2024-05-09T09:56:23.882Z,68149.69
2024-05-09T09:57:21.589Z,68195.44
2024-05-09T09:58:18.432Z,68140.00
2024-05-09T09:59:15.889Z,68126.56
2024-05-09T10:00:17.326Z,68022.22
2024-05-09T10:01:17.626Z,67975.13
2024-05-09T10:02:14.717Z,67979.47
2024-05-09T10:03:11.706Z,68008.78
2024-05-09T10:04:10.020Z,67973.59
2024-05-09T10:05:07.892Z,67930.94
2024-05-09T10:06:06.936Z,67942.88
2024-05-09T10:07:08.612Z,67905.75
2024-05-09T10:08:07.544Z,67914.38
2024-05-09T10:09:04.391Z,67914.38
2024-05-09T10:10:01.173Z,67922.50
2024-05-09T10:10:58.143Z,67934.94
2024-05-09T10:11:59.958Z,67914.13
2024-05-09T10:13:01.205Z,67919.97
2024-05-09T10:13:58.153Z,67910.78
2024-05-09T10:14:54.918Z,67917.03
2024-05-09T10:15:53.634Z,67903.66
2024-05-09T10:16:50.677Z,67897.63
2024-05-09T10:17:51.314Z,67907.13
2024-05-09T10:18:48.364Z,67906.88
2024-05-09T10:19:45.311Z,67905.31
2024-05-09T10:20:42.608Z,67930.44
2024-05-09T10:21:46.861Z,67926.13
2024-05-09T10:22:50.494Z,67970.78
2024-05-09T10:24:02.305Z,67936.03
2024-05-09T10:25:05.774Z,67934.22
2024-05-09T10:26:05.645Z,67950.56
2024-05-09T10:27:04.358Z,67918.59
2024-05-09T10:28:03.157Z,67912.59
2024-05-09T10:29:02.645Z,67938.41
2024-05-09T10:30:01.485Z,67906.56
2024-05-09T10:31:07.204Z,67913.69
2024-05-09T10:32:04.603Z,67933.38
2024-05-09T10:33:01.365Z,67931.72
2024-05-09T10:34:00.394Z,67913.28
2024-05-09T10:35:07.695Z,67958.25
2024-05-09T10:36:10.967Z,67958.81
2024-05-09T10:37:07.868Z,67957.25
2024-05-09T10:38:08.587Z,67940.06
2024-05-09T10:39:05.495Z,67914.38
2024-05-09T10:40:05.360Z,67928.34
2024-05-09T10:41:04.868Z,67934.94
2024-05-09T10:42:01.781Z,67933.25
2024-05-09T10:43:02.582Z,67920.41
2024-05-09T10:44:01.239Z,67919.41
2024-05-09T10:44:59.042Z,67943.28
2024-05-09T10:45:55.881Z,67954.91
2024-05-09T10:46:54.891Z,67942.72
2024-05-09T10:47:52.035Z,67947.22
2024-05-09T10:48:49.251Z,67962.84
2024-05-09T10:49:46.701Z,67938.13
2024-05-09T10:50:45.948Z,67947.88
2024-05-09T10:51:44.671Z,67958.38
2024-05-09T10:52:41.430Z,67950.00
2024-05-09T10:53:45.590Z,67937.84
2024-05-09T10:54:42.317Z,67957.25
2024-05-09T10:55:39.059Z,67983.63
2024-05-09T10:56:35.810Z,67977.94
2024-05-09T10:57:38.906Z,67968.56
2024-05-09T10:58:35.648Z,67968.00
2024-05-09T10:59:39.737Z,68026.13
2024-05-09T11:00:37.726Z,67985.31
2024-05-09T11:01:35.492Z,67997.59
2024-05-09T11:02:32.442Z,67962.28
2024-05-09T11:03:29.494Z,67989.66
2024-05-09T11:04:27.784Z,67952.25
2024-05-09T11:05:24.791Z,67987.91
2024-05-09T11:06:21.678Z,68001.94
2024-05-09T11:07:21.600Z,67981.41
2024-05-09T11:08:23.084Z,67972.78
2024-05-09T11:09:19.857Z,68042.34
2024-05-09T11:10:24.401Z,67977.88
2024-05-09T11:11:24.278Z,67975.69
2024-05-09T11:12:23.541Z,68050.59
2024-05-09T11:13:32.062Z,68019.16
2024-05-09T11:14:29.037Z,67999.72
2024-05-09T11:15:26.036Z,68013.25
2024-05-09T11:16:22.921Z,67993.13
2024-05-09T11:17:19.779Z,68048.34
2024-05-09T11:18:28.134Z,68074.06
2024-05-09T11:19:34.193Z,68094.31
2024-05-09T11:20:35.664Z,68031.59
2024-05-09T11:21:32.579Z,67995.25
2024-05-09T11:22:33.422Z,68004.19
2024-05-09T11:23:30.768Z,67982.41
2024-05-09T11:24:29.359Z,68010.31
2024-05-09T11:25:26.772Z,68018.88
2024-05-09T11:26:25.423Z,68030.34
2024-05-09T11:27:23.637Z,68047.34